Time;durP1;ratioP1;P1;durP2;ratioP2;P2;SDS_P1;SDS_P2;PMS_P1;PMS_P2;Temp;Humidity;BMP_temperature;BMP_pressure;BME280_temperature;BME280_humidity;BME280_pressure;Samples;Min_cycle;Max_cycle;Signal;HPM_P1;HPM_P2
2023/05/14 18:51:20;;;;;;;2.03;1.10;;;;;;;15.10;55.09;101394.16;4785817;22;8446305;-46
2023/05/14 18:53:46;;;;;;;4.20;1.08;;;;;;;15.08;55.01;101390.91;5004779;28;20053;-46
2023/05/14 18:56:13;;;;;;;3.25;0.93;;;;;;;15.06;54.93;101390.44;5006181;28;20124;-45
2023/05/14 18:58:40;;;;;;;1.75;0.88;;;;;;;15.02;54.75;101399.91;5001795;28;20523;-50
2023/05/14 19:01:07;;;;;;;4.88;1.08;;;;;;;14.95;54.66;101394.97;5007804;28;20053;-46
2023/05/14 19:03:33;;;;;;;3.75;0.80;;;;;;;14.90;54.84;101403.59;5005292;28;20042;-51
2023/05/14 19:06:00;;;;;;;3.35;0.80;;;;;;;14.85;54.91;101397.47;4995892;28;20109;-50
2023/05/14 19:08:27;;;;;;;5.78;1.52;;;;;;;14.80;55.04;101398.53;5009147;28;20045;-47
2023/05/14 19:10:53;;;;;;;3.28;1.50;;;;;;;14.81;54.99;101402.13;5004876;28;20046;-45
2023/05/14 19:13:20;;;;;;;4.80;0.73;;;;;;;14.82;55.32;101401.78;5007543;28;20392;-45
2023/05/14 19:15:47;;;;;;;3.10;1.00;;;;;;;14.82;55.45;101412.94;5005137;28;20050;-48
2023/05/14 19:18:13;;;;;;;3.28;1.65;;;;;;;14.79;55.36;101407.25;5002567;28;20133;-47
2023/05/14 19:20:41;;;;;;;2.90;0.90;;;;;;;14.77;55.37;101407.63;5009272;28;20138;-45
2023/05/14 19:23:07;;;;;;;3.83;0.70;;;;;;;14.69;55.43;101402.22;4998270;28;20133;-45
2023/05/14 19:25:34;;;;;;;2.95;1.10;;;;;;;14.62;55.42;101420.34;4995055;28;20154;-49
2023/05/14 19:28:02;;;;;;;1.58;0.95;;;;;;;14.55;55.33;101424.91;5006650;28;20043;-45
2023/05/14 19:30:29;;;;;;;2.17;0.77;;;;;;;14.49;55.36;101437.47;4996711;28;20047;-45
2023/05/14 19:32:57;;;;;;;1.98;1.08;;;;;;;14.43;55.48;101433.31;4998247;28;20054;-47
2023/05/14 19:35:24;;;;;;;2.03;0.52;;;;;;;14.33;55.67;101434.63;5004294;28;20499;-46
2023/05/14 19:37:51;;;;;;;2.15;0.88;;;;;;;14.30;55.40;101435.31;4997735;28;20046;-46
2023/05/14 19:40:17;;;;;;;4.40;0.85;;;;;;;14.30;55.42;101442.84;4981909;28;20046;-49
2023/05/14 19:42:44;;;;;;;4.53;0.90;;;;;;;14.20;55.22;101443.34;4998994;28;20061;-47
2023/05/14 19:45:11;;;;;;;6.10;0.98;;;;;;;14.14;55.42;101447.56;5007872;28;20530;-46
2023/05/14 19:47:37;;;;;;;3.75;0.90;;;;;;;14.08;55.47;101441.44;4993527;28;20046;-45
2023/05/14 19:50:08;;;;;;;8.43;1.48;;;;;;;14.02;55.34;101446.44;4989906;28;20054;-46
2023/05/14 19:52:41;;;;;;;2.78;1.77;;;;;;;13.96;55.26;101447.81;5002251;28;20074;-45
2023/05/14 19:55:11;;;;;;;;;;;;;;;13.90;55.11;101449.22;5001077;28;20066;-47
2023/05/14 19:57:40;;;;;;;2.83;1.00;;;;;;;13.86;55.11;101448.31;4995193;28;20016;-47
2023/05/14 20:00:11;;;;;;;3.20;1.10;;;;;;;13.80;54.95;101446.09;5000219;28;20130;-52
2023/05/14 20:02:39;;;;;;;6.57;1.30;;;;;;;13.76;55.13;101450.75;4988929;28;20141;-45
2023/05/14 20:05:10;;;;;;;4.50;0.73;;;;;;;13.76;55.33;101447.97;4983994;28;20046;-45
2023/05/14 20:07:37;;;;;;;8.77;1.05;;;;;;;13.70;55.43;101455.75;4986993;28;20092;-46
2023/05/14 20:10:09;;;;;;;3.72;0.77;;;;;;;13.64;55.52;101459.91;4972668;28;20043;-47
2023/05/14 20:12:39;;;;;;;2.65;1.25;;;;;;;13.62;55.70;101469.78;4984094;28;20411;-51
2023/05/14 20:15:06;;;;;;;5.00;0.60;;;;;;;13.60;55.88;101466.53;4988146;28;20064;-47
2023/05/14 20:17:33;;;;;;;8.75;0.77;;;;;;;13.54;55.88;101474.31;4985127;28;20057;-47
2023/05/14 20:20:00;;;;;;;3.70;1.00;;;;;;;13.52;56.00;101473.84;4984474;28;20392;-47
2023/05/14 20:22:27;;;;;;;5.97;0.93;;;;;;;13.43;55.79;101475.91;4986885;28;20054;-53
2023/05/14 20:24:53;;;;;;;3.85;0.88;;;;;;;13.33;55.78;101484.72;4968988;28;20050;-46
2023/05/14 20:27:20;;;;;;;3.63;0.80;;;;;;;13.24;55.60;101489.56;4979084;28;20142;-46
2023/05/14 20:29:50;;;;;;;2.47;0.82;;;;;;;13.10;55.58;101492.69;4981238;28;20055;-46
2023/05/14 20:32:17;;;;;;;2.50;1.13;;;;;;;13.02;55.63;101489.97;4985603;28;20046;-45
2023/05/14 20:34:43;;;;;;;2.50;0.65;;;;;;;12.94;55.88;101485.31;4968048;28;20484;-45
2023/05/14 20:37:10;;;;;;;4.22;1.00;;;;;;;12.84;55.88;101494.88;4982160;28;20416;-46
2023/05/14 20:39:38;;;;;;;1.45;0.60;;;;;;;12.72;55.90;101495.66;4984153;28;20146;-46
2023/05/14 20:42:05;;;;;;;3.53;0.80;;;;;;;12.66;55.84;101499.78;4984151;28;20054;-45
2023/05/14 20:44:32;;;;;;;2.60;0.50;;;;;;;12.64;55.96;101491.00;4976523;28;20051;-46
2023/05/14 20:46:59;;;;;;;3.28;0.52;;;;;;;12.61;56.07;101497.22;4981264;28;20045;-45
2023/05/14 20:49:25;;;;;;;4.65;1.27;;;;;;;12.52;56.27;101488.13;4972845;28;20054;-45
2023/05/14 20:51:52;;;;;;;3.05;1.30;;;;;;;12.50;56.35;101496.00;4986087;28;20050;-48
2023/05/14 20:54:19;;;;;;;4.35;0.93;;;;;;;12.46;56.50;101499.81;4985619;28;20141;-52
2023/05/14 20:56:47;;;;;;;3.28;0.82;;;;;;;12.37;56.58;101508.19;4987643;28;20055;-45
2023/05/14 20:59:13;;;;;;;4.97;0.75;;;;;;;12.31;56.84;101498.44;4984748;28;20129;-45
2023/05/14 21:01:41;;;;;;;2.80;0.73;;;;;;;12.25;57.07;101510.91;4992467;28;20077;-46
2023/05/14 21:04:08;;;;;;;3.25;1.00;;;;;;;12.19;57.20;101509.50;4985827;28;20043;-45
2023/05/14 21:06:36;;;;;;;4.28;1.00;;;;;;;12.15;57.18;101512.13;4989100;28;20543;-46
2023/05/14 21:09:03;;;;;;;3.58;1.15;;;;;;;12.13;57.54;101516.38;4987011;28;20050;-48
2023/05/14 21:11:29;;;;;;;3.97;1.27;;;;;;;12.12;57.60;101517.53;4992594;28;20144;-46
2023/05/14 21:13:56;;;;;;;3.33;1.25;;;;;;;12.12;57.63;101520.31;4987821;28;20054;-45
2023/05/14 21:16:23;;;;;;;3.90;1.30;;;;;;;12.09;57.91;101523.78;4991621;28;20092;-46
2023/05/14 21:18:50;;;;;;;3.55;1.17;;;;;;;12.05;58.18;101522.78;4990456;28;20447;-47
2023/05/14 21:21:17;;;;;;;3.63;1.30;;;;;;;12.04;58.28;101537.84;4989463;28;20050;-45
2023/05/14 21:23:44;;;;;;;5.10;0.90;;;;;;;11.98;58.38;101540.00;4991348;28;20492;-53
2023/05/14 21:26:11;;;;;;;6.72;1.98;;;;;;;11.92;58.84;101540.50;4988328;28;20042;-45
2023/05/14 21:28:38;;;;;;;1.40;1.00;;;;;;;11.86;58.81;101539.09;4995152;28;20121;-46
2023/05/14 21:31:05;;;;;;;3.22;1.20;;;;;;;11.83;59.07;101550.84;4983762;28;20053;-45
2023/05/14 21:33:32;;;;;;;6.22;1.10;;;;;;;11.79;59.34;101547.09;4957448;28;20054;-46
2023/05/14 21:35:59;;;;;;;2.33;0.90;;;;;;;11.77;59.16;101555.78;4993078;28;20046;-46
2023/05/14 21:38:26;;;;;;;3.53;0.98;;;;;;;11.73;59.59;101559.56;4984692;28;20445;-45
2023/05/14 21:40:52;;;;;;;4.68;1.25;;;;;;;11.72;59.95;101555.16;4987307;28;20042;-45
2023/05/14 21:43:19;;;;;;;4.85;1.65;;;;;;;11.67;60.03;101546.97;4990983;28;20499;-46
2023/05/14 21:45:46;;;;;;;5.90;1.80;;;;;;;11.60;60.03;101559.41;4983132;28;20154;-51
2023/05/14 21:48:13;;;;;;;9.98;2.78;;;;;;;11.58;60.36;101567.25;4982279;28;20045;-44
2023/05/14 21:50:40;;;;;;;4.97;2.05;;;;;;;11.54;60.45;101569.03;4998495;28;20050;-45
2023/05/14 21:53:07;;;;;;;5.82;1.48;;;;;;;11.46;60.42;101569.88;4958643;28;20066;-47
2023/05/14 21:55:33;;;;;;;5.10;1.45;;;;;;;11.41;60.71;101570.06;4998155;28;20389;-45
2023/05/14 21:58:01;;;;;;;6.38;1.60;;;;;;;11.38;60.70;101570.75;4989609;28;20046;-49
2023/05/14 22:00:28;;;;;;;3.58;1.38;;;;;;;11.33;60.95;101570.09;4989598;28;20062;-45
2023/05/14 22:02:55;;;;;;;7.72;1.35;;;;;;;11.29;61.10;101572.72;4989520;28;20046;-46
2023/05/14 22:05:22;;;;;;;4.70;1.52;;;;;;;11.26;60.98;101572.56;4988746;28;20057;-45
2023/05/14 22:07:50;;;;;;;7.05;1.58;;;;;;;11.22;61.21;101575.19;4988803;28;20046;-47
2023/05/14 22:10:17;;;;;;;4.38;1.05;;;;;;;11.16;61.03;101573.72;4987486;28;20042;-45
2023/05/14 22:12:44;;;;;;;3.72;1.20;;;;;;;11.14;60.60;101576.00;4988988;28;20046;-46
2023/05/14 22:15:12;;;;;;;7.47;1.40;;;;;;;11.10;60.99;101569.47;4989467;28;20073;-44
2023/05/14 22:17:38;;;;;;;4.30;1.00;;;;;;;11.04;60.90;101570.78;4989364;28;20054;-46
2023/05/14 22:20:06;;;;;;;3.38;1.08;;;;;;;11.05;61.07;101574.38;4989509;28;20096;-50
2023/05/14 22:22:32;;;;;;;6.55;1.27;;;;;;;11.00;61.09;101580.91;4976758;28;20065;-45
2023/05/14 22:24:59;;;;;;;4.90;1.05;;;;;;;10.97;60.98;101585.16;4989269;28;20471;-45
2023/05/14 22:27:26;;;;;;;3.95;1.00;;;;;;;10.95;60.97;101583.84;4971817;28;20046;-45
2023/05/14 22:29:54;;;;;;;4.97;1.00;;;;;;;10.91;61.07;101588.41;4971798;28;20068;-45
2023/05/14 22:32:20;;;;;;;4.60;1.00;;;;;;;10.88;61.05;101589.88;4989579;28;20116;-45
2023/05/14 22:34:47;;;;;;;5.03;1.65;;;;;;;10.86;61.12;101588.56;4987870;28;20054;-45
2023/05/14 22:37:15;;;;;;;4.00;1.13;;;;;;;10.81;61.09;101583.19;4989585;28;20046;-50
2023/05/14 22:39:42;;;;;;;3.90;1.10;;;;;;;10.74;61.45;101593.97;4989011;28;20062;-45
2023/05/14 22:42:09;;;;;;;5.72;1.02;;;;;;;10.71;61.50;101583.53;4989393;28;20050;-45
2023/05/14 22:44:36;;;;;;;4.43;1.13;;;;;;;10.70;61.34;101590.19;4988867;28;20053;-46
2023/05/14 22:47:06;;;;;;;5.22;0.93;;;;;;;10.65;61.58;101601.44;4989207;28;20125;-45
2023/05/14 22:49:33;;;;;;;4.45;1.20;;;;;;;10.57;61.74;101589.22;4989053;28;20086;-47
2023/05/14 22:52:00;;;;;;;6.85;2.72;;;;;;;10.51;62.18;101589.72;4988984;28;20058;-45
2023/05/14 22:54:26;;;;;;;4.35;1.02;;;;;;;10.47;62.02;101600.63;4989295;28;20046;-45
2023/05/14 22:56:53;;;;;;;6.18;1.10;;;;;;;10.46;62.23;101592.66;4989033;28;20066;-46
2023/05/14 22:59:20;;;;;;;7.38;1.30;;;;;;;10.45;62.24;101597.38;4987208;28;20058;-45
2023/05/14 23:01:49;;;;;;;3.15;1.20;;;;;;;10.42;62.44;101597.19;4988949;28;20050;-47
2023/05/14 23:04:16;;;;;;;1.80;0.88;;;;;;;10.39;62.57;101599.47;4990192;28;20053;-49
2023/05/14 23:06:43;;;;;;;6.88;1.10;;;;;;;10.36;62.82;101591.00;4989580;28;20038;-45
2023/05/14 23:09:10;;;;;;;6.97;1.77;;;;;;;10.28;62.85;101587.06;4989353;28;20050;-48
2023/05/14 23:11:36;;;;;;;4.63;1.75;;;;;;;10.26;63.04;101599.59;4989142;28;20053;-47
2023/05/14 23:14:03;;;;;;;4.45;1.13;;;;;;;10.24;62.96;101591.63;4988882;28;20042;-48
2023/05/14 23:16:30;;;;;;;5.72;1.15;;;;;;;10.21;63.32;101592.28;4988939;28;20050;-46
2023/05/14 23:18:57;;;;;;;2.92;1.23;;;;;;;10.20;63.35;101601.72;4971635;28;20495;-45
2023/05/14 23:21:24;;;;;;;4.57;1.42;;;;;;;10.15;63.47;101609.34;4989062;28;20069;-45
2023/05/14 23:23:51;;;;;;;4.00;1.33;;;;;;;10.12;63.54;101610.81;4989391;28;20039;-45
2023/05/14 23:26:18;;;;;;;10.32;2.70;;;;;;;10.12;63.65;101604.41;4988365;28;20125;-49
2023/05/14 23:28:46;;;;;;;5.68;1.85;;;;;;;10.14;63.73;101605.75;4988918;28;20058;-45
2023/05/14 23:31:13;;;;;;;10.65;2.13;;;;;;;10.10;63.86;101613.03;4988520;28;20729;-45
2023/05/14 23:33:39;;;;;;;6.82;1.17;;;;;;;10.06;63.96;101600.19;4971451;28;20105;-45
2023/05/14 23:36:07;;;;;;;3.97;2.53;;;;;;;10.06;63.80;101609.28;4989916;28;20054;-45
2023/05/14 23:38:33;;;;;;;6.38;1.88;;;;;;;10.02;63.94;101611.06;4992400;28;20038;-44
2023/05/14 23:41:00;;;;;;;12.57;2.17;;;;;;;9.98;64.00;101603.75;4992553;28;20149;-45
2023/05/14 23:43:27;;;;;;;5.03;2.20;;;;;;;9.93;64.05;101604.69;4992577;28;20050;-45
2023/05/14 23:45:54;;;;;;;5.28;1.70;;;;;;;9.92;64.16;101605.81;4992681;28;20046;-52
2023/05/14 23:48:21;;;;;;;5.47;1.25;;;;;;;9.92;64.03;101603.06;4992212;28;20050;-45
2023/05/14 23:50:48;;;;;;;3.40;1.33;;;;;;;9.90;64.30;101605.31;4974807;28;20112;-45
2023/05/14 23:53:14;;;;;;;7.40;1.17;;;;;;;9.88;64.48;101615.88;4990522;28;20101;-45
2023/05/14 23:55:41;;;;;;;6.55;1.67;;;;;;;9.87;64.49;101614.28;4992388;28;20050;-45
2023/05/14 23:58:08;;;;;;;4.35;1.45;;;;;;;9.84;64.57;101603.84;4991858;28;20039;-45
